createdAt,value
2022-09-12T00:02:22.469Z,14.60
2022-09-12T00:04:53.337Z,14.60
2022-09-12T00:07:24.178Z,14.60
2022-09-12T00:09:55.057Z,14.60
2022-09-12T00:12:26.000Z,14.50
2022-09-12T00:14:56.835Z,14.40
2022-09-12T00:17:27.743Z,14.50
2022-09-12T00:19:59.595Z,14.50
2022-09-12T00:22:30.490Z,14.50
2022-09-12T00:25:01.647Z,14.50
2022-09-12T00:27:32.623Z,14.50
2022-09-12T00:30:04.967Z,14.60
2022-09-12T00:32:35.854Z,14.50
2022-09-12T00:35:07.359Z,14.60
2022-09-12T00:37:38.231Z,14.60
2022-09-12T00:40:09.658Z,14.80
2022-09-12T00:42:40.574Z,14.90
2022-09-12T00:45:24.671Z,15.00
2022-09-12T00:48:00.002Z,15.00
2022-09-12T00:50:32.983Z,15.00
2022-09-12T00:53:08.635Z,14.90
2022-09-12T00:55:43.480Z,14.80
2022-09-12T00:58:22.679Z,14.80
2022-09-12T01:00:53.665Z,14.90
2022-09-12T01:03:26.151Z,14.90
2022-09-12T01:06:10.520Z,14.90
2022-09-12T01:08:44.350Z,15.00
2022-09-12T01:11:16.463Z,15.00
2022-09-12T01:13:48.175Z,15.00
2022-09-12T01:16:20.051Z,14.80
2022-09-12T01:19:11.200Z,14.80
2022-09-12T01:22:09.054Z,14.90
2022-09-12T01:25:03.379Z,15.00
2022-09-12T01:28:36.044Z,14.90
2022-09-12T01:31:18.666Z,14.70
2022-09-12T01:34:09.099Z,14.80
2022-09-12T01:36:55.168Z,14.60
2022-09-12T01:39:36.365Z,14.60
2022-09-12T01:42:16.334Z,14.50
2022-09-12T01:45:17.211Z,14.20
2022-09-12T01:47:55.270Z,14.20
2022-09-12T01:50:35.841Z,14.10
2022-09-12T01:53:22.937Z,14.20
2022-09-12T01:56:13.246Z,14.20
2022-09-12T01:58:52.476Z,14.20
2022-09-12T02:01:33.981Z,14.10
2022-09-12T02:04:18.943Z,14.10
2022-09-12T02:06:54.902Z,14.10
2022-09-12T02:09:59.151Z,14.00
2022-09-12T02:12:39.616Z,14.00
2022-09-12T02:15:15.296Z,14.10
2022-09-12T02:17:50.750Z,14.10
2022-09-12T02:20:47.045Z,14.10
2022-09-12T02:23:29.202Z,14.00
2022-09-12T02:26:13.323Z,14.00
2022-09-12T02:28:44.650Z,14.10
2022-09-12T02:31:34.688Z,13.90
2022-09-12T02:34:39.863Z,13.80
2022-09-12T02:37:31.925Z,13.80
2022-09-12T02:40:03.437Z,13.70
2022-09-12T02:42:35.151Z,13.70
2022-09-12T02:45:07.247Z,13.60
2022-09-12T02:47:45.478Z,13.50
2022-09-12T02:50:16.781Z,13.50
2022-09-12T02:52:48.655Z,13.50
2022-09-12T02:55:19.825Z,13.40
2022-09-12T02:57:50.675Z,13.50
2022-09-12T03:00:23.170Z,13.40
2022-09-12T03:03:31.810Z,13.40
2022-09-12T03:06:33.583Z,13.30
2022-09-12T03:09:20.720Z,13.30
2022-09-12T03:11:54.854Z,13.40
2022-09-12T03:15:09.148Z,13.40
2022-09-12T03:18:17.336Z,13.40
2022-09-12T03:21:00.402Z,13.40
2022-09-12T03:23:48.625Z,13.50
2022-09-12T03:26:45.074Z,13.50
2022-09-12T03:29:18.516Z,13.50
2022-09-12T03:31:53.046Z,13.40
2022-09-12T03:34:27.268Z,13.40
2022-09-12T03:36:58.250Z,13.40
2022-09-12T03:39:29.150Z,13.40
2022-09-12T03:42:00.091Z,13.40
2022-09-12T03:44:30.905Z,13.40
2022-09-12T03:47:01.756Z,13.40
2022-09-12T03:49:33.712Z,13.40
2022-09-12T03:52:05.463Z,13.30
2022-09-12T03:54:36.423Z,13.40
2022-09-12T03:57:08.124Z,13.30
2022-09-12T03:59:39.002Z,13.30
2022-09-12T04:02:12.936Z,13.30
2022-09-12T04:04:44.552Z,13.30
2022-09-12T04:07:16.616Z,13.30
2022-09-12T04:09:47.495Z,13.30
2022-09-12T04:12:18.403Z,13.30
2022-09-12T04:14:49.821Z,13.30
2022-09-12T04:17:20.694Z,13.30
2022-09-12T04:19:51.570Z,13.30
2022-09-12T04:22:22.431Z,13.20
2022-09-12T04:24:53.395Z,13.20
2022-09-12T04:27:24.265Z,13.30
2022-09-12T04:29:56.226Z,13.50
2022-09-12T04:32:27.136Z,13.50
2022-09-12T04:34:58.179Z,13.50
2022-09-12T04:37:29.046Z,13.50
2022-09-12T04:40:00.258Z,13.60
2022-09-12T04:42:31.180Z,13.40
2022-09-12T04:45:02.107Z,13.40
2022-09-12T04:47:32.982Z,13.20
2022-09-12T04:50:04.345Z,13.10
2022-09-12T04:52:35.241Z,13.10
2022-09-12T04:55:07.130Z,13.10
2022-09-12T04:57:38.026Z,13.00
2022-09-12T05:00:14.357Z,13.00
2022-09-12T05:02:45.210Z,13.00
2022-09-12T05:05:17.628Z,13.00
2022-09-12T05:07:48.484Z,13.00
2022-09-12T05:10:19.320Z,13.10
2022-09-12T05:12:50.254Z,13.00
2022-09-12T05:15:21.071Z,13.00
2022-09-12T05:17:51.899Z,12.90
2022-09-12T05:20:22.734Z,12.90
2022-09-12T05:22:53.588Z,12.90
2022-09-12T05:25:24.441Z,13.00
2022-09-12T05:27:55.257Z,12.90
2022-09-12T05:30:26.098Z,12.90
2022-09-12T05:32:56.973Z,12.90
2022-09-12T05:35:27.815Z,12.90
2022-09-12T05:37:58.855Z,12.90
2022-09-12T05:40:30.055Z,12.90
2022-09-12T05:43:01.071Z,12.90
2022-09-12T05:45:32.570Z,12.90
2022-09-12T05:48:04.446Z,12.90
2022-09-12T05:50:36.907Z,12.90
2022-09-12T05:53:08.615Z,12.90
2022-09-12T05:55:41.856Z,12.90
2022-09-12T05:58:12.720Z,12.90
2022-09-12T06:00:43.548Z,12.80
2022-09-12T06:03:14.726Z,12.90
2022-09-12T06:05:50.567Z,12.90
2022-09-12T06:08:24.897Z,13.00
2022-09-12T06:11:05.905Z,13.00
2022-09-12T06:13:40.085Z,12.90
2022-09-12T06:16:18.550Z,12.90
2022-09-12T06:18:53.718Z,13.00
2022-09-12T06:21:26.630Z,13.20
2022-09-12T06:24:01.105Z,13.30
2022-09-12T06:26:31.984Z,13.40
2022-09-12T06:29:03.496Z,13.60
2022-09-12T06:31:36.814Z,13.80
2022-09-12T06:34:11.438Z,13.70
2022-09-12T06:36:48.604Z,13.70
2022-09-12T06:39:22.270Z,13.70
2022-09-12T06:41:53.201Z,13.80
2022-09-12T06:44:24.084Z,13.80
2022-09-12T06:46:54.935Z,14.00
2022-09-12T06:49:25.867Z,14.20
2022-09-12T06:51:56.726Z,14.20
2022-09-12T06:54:27.609Z,14.30
2022-09-12T06:56:58.490Z,14.50
2022-09-12T06:59:29.381Z,14.50
2022-09-12T07:02:01.609Z,14.40
2022-09-12T07:04:34.677Z,14.50
2022-09-12T07:07:05.805Z,14.70
2022-09-12T07:09:36.662Z,14.70
2022-09-12T07:12:08.155Z,14.90
2022-09-12T07:14:38.985Z,14.90
2022-09-12T07:17:09.892Z,14.80
2022-09-12T07:19:41.442Z,14.90
2022-09-12T07:22:12.329Z,15.00
2022-09-12T07:24:43.294Z,15.00
2022-09-12T07:27:14.730Z,15.20
2022-09-12T07:29:46.850Z,15.30
2022-09-12T07:32:17.692Z,15.50
2022-09-12T07:34:49.972Z,15.60
2022-09-12T07:37:21.538Z,15.60
2022-09-12T07:39:52.644Z,15.70
2022-09-12T07:42:23.727Z,15.80
2022-09-12T07:44:54.632Z,15.90
2022-09-12T07:47:25.513Z,15.90
2022-09-12T07:49:56.632Z,16.00
2022-09-12T07:52:27.489Z,16.00
2022-09-12T07:54:58.713Z,16.20
2022-09-12T07:57:29.621Z,16.30
2022-09-12T08:00:00.439Z,16.40
2022-09-12T08:02:31.685Z,16.50
2022-09-12T08:05:02.576Z,16.60
2022-09-12T08:07:34.166Z,16.60
2022-09-12T08:10:06.514Z,16.60
2022-09-12T08:12:37.402Z,16.80
2022-09-12T08:15:08.808Z,16.80
2022-09-12T08:17:39.641Z,16.90
2022-09-12T08:20:10.492Z,16.90
2022-09-12T08:22:41.689Z,17.00
2022-09-12T08:25:12.534Z,17.20
2022-09-12T08:27:43.558Z,17.30
2022-09-12T08:30:14.454Z,17.40
2022-09-12T08:32:45.399Z,17.50
2022-09-12T08:35:16.603Z,17.60
2022-09-12T08:37:47.446Z,17.60
2022-09-12T08:40:18.858Z,17.70
2022-09-12T08:43:14.174Z,17.80
2022-09-12T08:46:02.958Z,17.90
2022-09-12T08:48:34.555Z,18.00
2022-09-12T08:51:05.675Z,18.10
2022-09-12T08:53:37.538Z,18.30
2022-09-12T08:56:11.719Z,18.30
2022-09-12T08:58:45.325Z,18.40
2022-09-12T09:01:34.124Z,18.50
2022-09-12T09:04:28.841Z,18.70
2022-09-12T09:07:22.963Z,18.80
2022-09-12T09:10:28.101Z,18.80
2022-09-12T09:13:46.099Z,18.80
2022-09-12T09:16:30.658Z,18.90
2022-09-12T09:19:06.544Z,19.10
2022-09-12T09:21:52.942Z,19.30
2022-09-12T09:24:52.800Z,19.40
2022-09-12T09:27:46.899Z,19.50
2022-09-12T09:30:21.800Z,19.70
2022-09-12T09:32:57.995Z,19.80
2022-09-12T09:35:47.223Z,19.90
2022-09-12T09:38:39.513Z,20.10
2022-09-12T09:41:19.155Z,20.10
2022-09-12T09:43:50.229Z,20.10
2022-09-12T09:46:21.295Z,20.10
2022-09-12T09:48:53.076Z,20.10
2022-09-12T09:51:28.782Z,20.20
2022-09-12T09:54:22.003Z,20.30
2022-09-12T09:56:52.990Z,20.30
2022-09-12T09:59:33.750Z,20.40
2022-09-12T10:02:24.214Z,20.50
2022-09-12T10:04:57.993Z,20.60
2022-09-12T10:07:28.847Z,20.70
2022-09-12T10:10:19.993Z,20.80
2022-09-12T10:12:52.144Z,20.80
2022-09-12T10:15:29.579Z,20.70
2022-09-12T10:18:00.669Z,20.70
2022-09-12T10:20:40.572Z,20.70
2022-09-12T10:23:37.595Z,20.70
2022-09-12T10:26:15.764Z,20.90
2022-09-12T10:28:53.566Z,21.10
2022-09-12T10:31:41.490Z,21.30
2022-09-12T10:34:28.778Z,21.40
2022-09-12T10:37:05.945Z,21.40
2022-09-12T10:39:38.988Z,21.70
2022-09-12T10:42:15.403Z,21.90
2022-09-12T10:44:56.502Z,22.10
2022-09-12T10:47:31.974Z,22.30
2022-09-12T10:50:27.510Z,22.50
2022-09-12T10:53:23.392Z,22.60
2022-09-12T10:56:22.609Z,23.10
2022-09-12T10:59:20.301Z,24.50
2022-09-12T11:02:31.641Z,25.10
2022-09-12T11:05:08.640Z,25.80
2022-09-12T11:08:04.017Z,25.90
2022-09-12T11:10:49.851Z,25.70
2022-09-12T11:13:58.313Z,26.10
2022-09-12T11:16:54.155Z,26.40
2022-09-12T11:19:37.259Z,27.00
2022-09-12T11:23:01.988Z,27.10
2022-09-12T11:25:41.857Z,26.80
2022-09-12T11:28:38.514Z,26.60
2022-09-12T11:31:46.307Z,26.50
2022-09-12T11:34:36.887Z,26.30
2022-09-12T11:37:48.283Z,26.60
2022-09-12T11:40:55.953Z,26.70
2022-09-12T11:44:03.649Z,26.70
2022-09-12T11:46:39.751Z,26.40
2022-09-12T11:49:13.522Z,26.60
2022-09-12T11:52:16.652Z,26.60
2022-09-12T11:55:15.796Z,26.40
2022-09-12T11:57:57.969Z,26.20
2022-09-12T12:00:33.853Z,26.20
2022-09-12T12:03:37.606Z,26.30
2022-09-12T12:06:31.895Z,26.40
2022-09-12T12:09:05.124Z,26.40
2022-09-12T12:11:45.126Z,26.30
2022-09-12T12:14:25.622Z,26.40
2022-09-12T12:16:57.792Z,26.50
2022-09-12T12:19:36.936Z,26.50
2022-09-12T12:22:20.208Z,26.90
2022-09-12T12:25:40.177Z,27.10
2022-09-12T12:28:11.034Z,27.30
2022-09-12T12:31:09.899Z,27.40
2022-09-12T12:33:43.950Z,26.90
2022-09-12T12:36:41.016Z,26.90
2022-09-12T12:39:38.163Z,27.00
2022-09-12T12:42:09.054Z,27.10
2022-09-12T12:44:47.194Z,27.40
2022-09-12T12:47:27.485Z,27.30
2022-09-12T12:50:05.426Z,27.10
2022-09-12T12:52:55.139Z,27.10
2022-09-12T12:55:31.338Z,27.00
2022-09-12T12:58:37.549Z,27.00
2022-09-12T13:01:18.181Z,27.10
2022-09-12T13:04:04.253Z,27.50
2022-09-12T13:06:42.328Z,27.90
2022-09-12T13:09:48.182Z,27.90
2022-09-12T13:12:27.297Z,27.90
2022-09-12T13:15:00.639Z,27.90
2022-09-12T13:17:44.763Z,27.80
2022-09-12T13:20:29.897Z,27.60
2022-09-12T13:23:00.873Z,28.00
2022-09-12T13:25:34.445Z,27.90
2022-09-12T13:28:13.880Z,27.90
2022-09-12T13:31:22.095Z,28.00
2022-09-12T13:33:57.139Z,27.80
2022-09-12T13:36:49.617Z,27.90
2022-09-12T13:39:29.296Z,28.10
2022-09-12T13:42:36.418Z,28.30
2022-09-12T13:45:18.242Z,28.50
2022-09-12T13:48:02.074Z,28.50
2022-09-12T13:50:41.837Z,28.60
2022-09-12T13:53:17.464Z,28.50
2022-09-12T13:55:57.286Z,28.70
2022-09-12T13:58:35.088Z,28.60
2022-09-12T14:01:14.144Z,28.70
2022-09-12T14:04:15.077Z,28.90
2022-09-12T14:06:51.719Z,28.80
2022-09-12T14:09:28.745Z,28.60
2022-09-12T14:11:59.942Z,28.60
2022-09-12T14:14:37.417Z,29.00
2022-09-12T14:17:36.348Z,29.10
2022-09-12T14:20:14.642Z,28.90
2022-09-12T14:22:50.471Z,28.80
2022-09-12T14:25:25.534Z,28.90
2022-09-12T14:27:58.100Z,29.10
2022-09-12T14:30:33.449Z,29.10
2022-09-12T14:33:10.272Z,29.10
2022-09-12T14:36:04.195Z,29.40
2022-09-12T14:38:42.074Z,29.30
2022-09-12T14:41:22.744Z,29.30
2022-09-12T14:43:59.894Z,28.90
2022-09-12T14:46:35.796Z,29.10
2022-09-12T14:49:28.355Z,29.60
2022-09-12T14:52:03.999Z,29.60
2022-09-12T14:54:40.193Z,29.50
2022-09-12T14:57:36.439Z,29.70
2022-09-12T15:00:17.841Z,29.70
2022-09-12T15:02:51.002Z,29.50
2022-09-12T15:05:27.476Z,29.40
2022-09-12T15:08:01.097Z,29.20
2022-09-12T15:10:36.617Z,29.20
2022-09-12T15:13:11.087Z,29.50
2022-09-12T15:15:46.098Z,29.80
2022-09-12T15:18:18.599Z,29.80
2022-09-12T15:20:53.675Z,30.00
2022-09-12T15:23:27.667Z,29.80
2022-09-12T15:25:58.812Z,29.70
2022-09-12T15:28:31.379Z,29.70
2022-09-12T15:31:13.813Z,29.50
2022-09-12T15:33:44.760Z,29.80
2022-09-12T15:36:18.852Z,29.70
2022-09-12T15:38:50.787Z,29.80
2022-09-12T15:41:33.343Z,29.90
2022-09-12T15:44:06.242Z,29.60
2022-09-12T15:46:37.129Z,29.30
2022-09-12T15:49:08.036Z,29.00
2022-09-12T15:51:39.027Z,28.90
2022-09-12T15:54:13.087Z,29.20
2022-09-12T15:56:44.010Z,29.00
2022-09-12T15:59:14.852Z,29.30
2022-09-12T16:01:45.780Z,29.30
2022-09-12T16:04:24.994Z,29.60
2022-09-12T16:06:57.273Z,29.60
2022-09-12T16:09:28.236Z,29.60
2022-09-12T16:11:59.126Z,29.20
2022-09-12T16:14:30.085Z,29.30
2022-09-12T16:17:01.002Z,29.20
2022-09-12T16:19:31.927Z,29.10
2022-09-12T16:22:02.968Z,28.90
2022-09-12T16:24:33.871Z,29.10
2022-09-12T16:27:04.961Z,29.00
2022-09-12T16:29:35.871Z,28.80
2022-09-12T16:32:07.011Z,28.60
2022-09-12T16:34:37.855Z,28.40
2022-09-12T16:37:08.757Z,28.40
2022-09-12T16:39:39.621Z,28.40
2022-09-12T16:42:10.553Z,28.20
2022-09-12T16:44:41.783Z,28.30
2022-09-12T16:47:13.331Z,28.30
2022-09-12T16:49:44.305Z,28.40
2022-09-12T16:52:16.656Z,28.30
2022-09-12T16:54:47.536Z,28.00
2022-09-12T16:57:18.412Z,27.60
2022-09-12T16:59:49.695Z,27.40
2022-09-12T17:02:20.625Z,27.30
2022-09-12T17:04:52.632Z,27.10
2022-09-12T17:07:23.526Z,26.90
2022-09-12T17:09:54.431Z,26.70
2022-09-12T17:12:26.028Z,26.50
2022-09-12T17:14:56.889Z,26.40
2022-09-12T17:17:27.830Z,26.30
2022-09-12T17:19:58.667Z,26.00
2022-09-12T17:22:29.634Z,25.70
2022-09-12T17:25:00.699Z,25.50
2022-09-12T17:27:31.576Z,25.40
2022-09-12T17:30:02.805Z,25.20
2022-09-12T17:32:33.666Z,25.00
2022-09-12T17:35:05.432Z,24.80
2022-09-12T17:37:36.446Z,24.70
2022-09-12T17:40:08.256Z,24.50
2022-09-12T17:42:40.434Z,24.30
2022-09-12T17:45:16.397Z,24.00
2022-09-12T17:47:51.632Z,23.90
2022-09-12T17:50:39.281Z,23.70
2022-09-12T17:53:10.850Z,23.60
2022-09-12T17:55:41.848Z,23.40
2022-09-12T17:58:12.743Z,23.30
2022-09-12T18:01:02.011Z,23.10
2022-09-12T18:03:35.087Z,22.90
2022-09-12T18:06:06.381Z,22.80
2022-09-12T18:08:37.203Z,22.60
2022-09-12T18:11:08.648Z,22.60
2022-09-12T18:13:42.302Z,22.40
2022-09-12T18:16:14.514Z,22.20
2022-09-12T18:18:45.623Z,22.20
2022-09-12T18:21:17.046Z,22.10
2022-09-12T18:23:47.990Z,22.20
2022-09-12T18:26:18.921Z,22.10
2022-09-12T18:28:49.747Z,22.10
2022-09-12T18:31:24.249Z,22.00
2022-09-12T18:33:55.731Z,21.90
2022-09-12T18:36:27.485Z,21.80
2022-09-12T18:38:59.455Z,21.70
2022-09-12T18:41:30.667Z,21.60
2022-09-12T18:44:02.757Z,21.50
2022-09-12T18:46:35.460Z,21.40
2022-09-12T18:49:07.754Z,21.30
2022-09-12T18:51:41.750Z,21.30
2022-09-12T18:54:14.551Z,21.20
2022-09-12T18:56:45.901Z,21.20
2022-09-12T18:59:16.953Z,21.20
2022-09-12T19:01:48.070Z,21.10
2022-09-12T19:04:19.277Z,21.10
2022-09-12T19:06:50.600Z,21.10
2022-09-12T19:09:21.468Z,21.00
2022-09-12T19:11:52.658Z,20.90
2022-09-12T19:14:26.642Z,20.80
2022-09-12T19:16:57.644Z,20.70
2022-09-12T19:19:28.808Z,20.70
2022-09-12T19:21:59.738Z,20.70
2022-09-12T19:24:31.418Z,20.70
2022-09-12T19:27:02.339Z,20.60
2022-09-12T19:29:33.364Z,20.50
2022-09-12T19:32:04.364Z,20.40
2022-09-12T19:34:35.219Z,20.30
2022-09-12T19:37:06.244Z,20.10
2022-09-12T19:39:37.129Z,20.00
2022-09-12T19:42:08.143Z,20.00
2022-09-12T19:44:39.274Z,20.00
2022-09-12T19:47:11.197Z,19.90
2022-09-12T19:49:42.065Z,19.90
2022-09-12T19:52:17.279Z,19.70
2022-09-12T19:54:48.467Z,19.50
2022-09-12T19:57:19.412Z,19.40
2022-09-12T19:59:50.250Z,19.30
2022-09-12T20:02:21.893Z,19.30
2022-09-12T20:04:52.760Z,19.10
2022-09-12T20:07:23.770Z,19.00
2022-09-12T20:09:55.248Z,19.00
2022-09-12T20:12:26.205Z,19.50
2022-09-12T20:14:59.990Z,19.80
2022-09-12T20:17:31.605Z,20.10
2022-09-12T20:20:02.696Z,19.70
2022-09-12T20:22:38.030Z,19.50
2022-09-12T20:25:10.992Z,19.30
2022-09-12T20:27:41.859Z,19.10
2022-09-12T20:30:14.412Z,19.00
2022-09-12T20:32:45.386Z,18.80
2022-09-12T20:35:17.501Z,18.80
2022-09-12T20:37:48.775Z,18.70
2022-09-12T20:40:19.682Z,18.70
2022-09-12T20:42:50.637Z,18.70
2022-09-12T20:45:21.489Z,18.70
2022-09-12T20:47:52.442Z,18.80
2022-09-12T20:50:23.328Z,18.90
2022-09-12T20:52:54.225Z,18.90
2022-09-12T20:55:26.499Z,18.80
2022-09-12T20:57:57.558Z,18.70
2022-09-12T21:00:29.033Z,18.50
2022-09-12T21:02:59.985Z,18.50
2022-09-12T21:05:30.852Z,18.40
2022-09-12T21:08:01.937Z,18.30
2022-09-12T21:10:33.016Z,18.20
2022-09-12T21:13:04.117Z,18.20
2022-09-12T21:15:34.979Z,18.10
2022-09-12T21:18:06.246Z,18.00
2022-09-12T21:20:37.099Z,17.90
2022-09-12T21:23:08.078Z,17.90
2022-09-12T21:25:38.963Z,17.90
2022-09-12T21:28:09.882Z,17.90
2022-09-12T21:30:40.704Z,17.90
2022-09-12T21:33:11.602Z,17.90
2022-09-12T21:35:42.449Z,17.90
2022-09-12T21:38:15.241Z,17.80
2022-09-12T21:40:47.661Z,17.70
2022-09-12T21:43:18.538Z,17.70
2022-09-12T21:45:49.906Z,17.70
2022-09-12T21:48:20.750Z,17.70
2022-09-12T21:50:51.886Z,17.70
2022-09-12T21:53:23.213Z,17.70
2022-09-12T21:55:54.109Z,17.70
2022-09-12T21:58:25.020Z,17.60
2022-09-12T22:00:56.307Z,17.60
2022-09-12T22:03:28.790Z,17.60
2022-09-12T22:06:05.400Z,17.60
2022-09-12T22:08:37.770Z,17.70
2022-09-12T22:11:10.142Z,17.60
2022-09-12T22:13:47.586Z,17.60
2022-09-12T22:16:18.673Z,17.70
2022-09-12T22:18:50.783Z,17.70
2022-09-12T22:21:24.278Z,17.70
2022-09-12T22:24:14.495Z,17.70
2022-09-12T22:26:46.392Z,17.60
2022-09-12T22:29:17.271Z,17.50
2022-09-12T22:31:48.336Z,17.40
2022-09-12T22:34:19.395Z,17.40
2022-09-12T22:36:50.366Z,17.40
2022-09-12T22:39:21.418Z,17.40
2022-09-12T22:41:52.318Z,17.40
2022-09-12T22:44:23.227Z,17.30
2022-09-12T22:46:54.135Z,17.20
2022-09-12T22:49:25.086Z,17.10
2022-09-12T22:51:55.911Z,17.10
2022-09-12T22:54:28.010Z,17.10
2022-09-12T22:56:58.936Z,17.20
2022-09-12T22:59:29.882Z,17.20
2022-09-12T23:02:00.928Z,17.20
2022-09-12T23:04:32.954Z,17.20
2022-09-12T23:07:04.069Z,17.20
2022-09-12T23:09:35.662Z,17.30
2022-09-12T23:12:06.828Z,17.20
2022-09-12T23:14:37.658Z,17.10
2022-09-12T23:17:08.561Z,17.00
2022-09-12T23:19:39.655Z,16.90
2022-09-12T23:22:10.577Z,16.90
2022-09-12T23:24:41.598Z,16.80
2022-09-12T23:27:12.437Z,16.80
2022-09-12T23:29:43.287Z,16.90
2022-09-12T23:32:14.119Z,16.90
2022-09-12T23:34:46.716Z,16.90
2022-09-12T23:37:17.707Z,16.80
2022-09-12T23:39:49.652Z,16.90
2022-09-12T23:42:20.586Z,16.90
2022-09-12T23:44:51.397Z,16.90
2022-09-12T23:47:22.218Z,16.90
2022-09-12T23:49:53.047Z,16.80
2022-09-12T23:52:23.975Z,16.80
2022-09-12T23:54:54.815Z,16.70
2022-09-12T23:57:25.647Z,16.70
2022-09-12T23:59:56.552Z,16.70
